• Join FlightAware (Why Join?)
  • Login
  • US Flag 
04:13PM EDT


 

Airport Tracker/Info


-or-


 

Live Flight TrackerFlight Track Log ✈ CJC3880 ✈ 30-Apr-2012 ✈ KHPN - KIAD

Flight Track Log - Related Links

Times and Time Zones

All times are in EDT time to prevent confusion due to time zone crossing. See the CJC3880 flight status page for this flight to view local times or setup timezone preferences in your user account.

Time Position Orientation Groundspeed Altitude Reporting Facility
EDT Latitude Longitude Course Direction KTS MPH feet Rate Location/Type
10:35AM 41.0333 -73.7167 294° West 167 192 2,200  Level New York TRACON
10:36AM 41.0500 -73.7667 270° West 170 196 3,600 1,440 Climbing New York TRACON
10:37AM 41.0500 -73.8333 270° West 173 199 5,100 1,320 Climbing New York TRACON
10:38AM 41.0500 -73.8833 252° West 173 199 6,300 1,140 Climbing New York TRACON
10:39AM 41.0333 -73.9500 252° West 170 196 7,400 1,080 Climbing New York TRACON
10:40AM 41.0167 -74.0167 246° West 173 199 8,500 960 Climbing New York TRACON
10:41AM 41.0000 -74.0667 237° Southwest 175 201 9,400 720 Climbing New York TRACON
10:42AM 40.9667 -74.1333 252° West 186 214 10,000 540 Climbing New York TRACON
10:43AM 40.9500 -74.2000 245° Southwest 195 224 10,600 540 Climbing New York TRACON
10:45AM 40.9061 -74.3239 249° West 202 232 11,700 540 Climbing New York Center
10:46AM 40.8875 -74.3886 248° West 202 232 12,300 540 Climbing New York Center
10:47AM 40.8667 -74.4561 249° West 202 232 12,900 600 Climbing New York Center
10:48AM 40.8478 -74.5211 252° West 197 227 13,500 540 Climbing New York Center
10:49AM 40.8311 -74.5886 250° West 197 227 14,000 240 Climbing New York Center
10:50AM 40.8122 -74.6589 250° West 202 232 14,000  Level New York Center
10:51AM 40.7908 -74.7344 250° West 216 249 14,000  Level New York Center
10:52AM 40.7694 -74.8125 252° West 226 260 14,000  Level New York Center
10:53AM 40.7478 -74.8989 250° West 233 268 14,000  Level New York Center
10:54AM 40.7286 -74.9692 251° West 239 275 14,000  Level New York Center
10:55AM 40.7069 -75.0525 247° West 239 275 14,000  Level New York Center
10:56AM 40.6786 -75.1383 242° Southwest 240 276 14,000  Level New York Center
10:57AM 40.6511 -75.2078 242° Southwest 230 265 14,000  Level New York Center
10:58AM 40.6236 -75.2769 245° Southwest 230 265 14,000  Level New York Center
10:59AM 40.5978 -75.3492 243° Southwest 230 265 14,000  Level New York Center
11:00AM 40.5678 -75.4264 236° Southwest 230 265 14,000  Level New York Center
11:01AM 40.5339 -75.4922 236° Southwest 230 265 14,000  Level New York Center
11:02AM 40.5000 -75.5583 237° Southwest 219 252 14,000  Level New York Center
11:03AM 40.4681 -75.6242 234° Southwest 219 252 14,000  Level New York Center
11:04AM 40.4364 -75.6819 236° Southwest 219 252 14,000  Level New York Center
11:05AM 40.4025 -75.7478 234° Southwest 219 252 14,000  Level New York Center
11:06AM 40.3642 -75.8158 233° Southwest 219 252 14,000  Level New York Center
11:07AM 40.3281 -75.8786 234° Southwest 219 252 14,000  Level New York Center
11:08AM 40.2919 -75.9439 234° Southwest 219 252 14,100  Climbing New York Center
11:09AM 40.2603 -76.0014 236° Southwest 219 252 14,100  Level New York Center
11:10AM 40.2236 -76.0719 237° Southwest 219 252 14,100  Level New York Center
11:11AM 40.1939 -76.1322 238° Southwest 219 252 14,100 -480 Level New York Center
11:12AM 40.1569 -76.2081 239° Southwest 224 258 13,200 -1,020 Descending New York Center
11:13AM 40.1269 -76.2736 240° Southwest 237 273 12,200 -600 Descending New York Center
11:14AM 40.0942 -76.3472 243° Southwest 244 281 12,000 -120 Descending New York Center
11:16AM 40.0333 -76.5000 237° Southwest 217 250 12,000  Level Potomac TRACON
11:17AM 40.0000 -76.5667 237° Southwest 214 246 12,000  Level Potomac TRACON
11:18AM 39.9667 -76.6333 237° Southwest 215 247 12,000  Level Potomac TRACON
11:19AM 39.9333 -76.7000 252° West 216 249 12,100  Climbing Potomac TRACON
11:20AM 39.9167 -76.7667 237° Southwest 214 246 12,100 -60 Level Potomac TRACON
11:21AM 39.8833 -76.8333 237° Southwest 214 246 12,000 -240 Descending Potomac TRACON
11:22AM 39.8500 -76.9000 237° Southwest 213 245 11,700 -600 Descending Potomac TRACON
11:23AM 39.8167 -76.9667 237° Southwest 226 260 10,800 -900 Descending Potomac TRACON
11:24AM 39.7833 -77.0333 237° Southwest 229 264 9,900 -900 Descending Potomac TRACON
11:25AM 39.7500 -77.1000 237° Southwest 217 250 9,000 -900 Descending Potomac TRACON
11:26AM 39.7167 -77.1667 237° Southwest 207 238 8,100 -540 Descending Potomac TRACON
11:27AM 39.6833 -77.2333 247° West 202 232 8,000 -60 Descending Potomac TRACON
11:28AM 39.6667 -77.2833 237° Southwest 189 217 8,000 -300 Level Potomac TRACON
11:29AM 39.6333 -77.3500 201° Southwest 194 223 7,500 -840 Descending Potomac TRACON
11:30AM 39.5667 -77.3833 194° South 210 242 6,400 -1,020 Descending Potomac TRACON
11:31AM 39.5167 -77.4000 194° South 207 238 5,600 -960 Descending Potomac TRACON
11:32AM 39.4667 -77.4167 194° South 198 228 4,600 -900 Descending Potomac TRACON
11:33AM 39.4167 -77.4333 180° South 186 214 3,900 -300 Descending Potomac TRACON
11:34AM 39.3667 -77.4333 180° South 182 209 4,000 -240 Climbing Potomac TRACON
11:35AM 39.3167 -77.4333 180° South 190 219 3,500 -480 Descending Potomac TRACON
11:36AM 39.2667 -77.4333 180° South 189 217 3,100 -240 Descending Potomac TRACON
11:37AM 39.2167 -77.4333 180° South 175 201 3,100  Level Potomac TRACON
11:38AM 39.1667 -77.4333 180° South 178 205 3,100 -60 Level Potomac TRACON
11:39AM 39.1167 -77.4333 180° South 181 208 3,000 -300 Descending Potomac TRACON
11:40AM 39.0667 -77.4333 180° South 148 170 2,600 -600 Descending Potomac TRACON
11:41AM 39.0333 -77.4333 180° South 139 160 1,800 -840 Descending Potomac TRACON
11:42AM 38.9833 -77.4333 180° South 138 159 1,000 -840 Descending Potomac TRACON